Time;durP1;ratioP1;P1;durP2;ratioP2;P2;SDS_P1;SDS_P2;PMS_P1;PMS_P2;Temp;Humidity;BMP_temperature;BMP_pressure;BME280_temperature;BME280_humidity;BME280_pressure;Samples;Min_cycle;Max_cycle;Signal;HPM_P1;HPM_P2
2023/05/18 00:00:09;;;;;;;;;;;;;;;13.34;69.65;99647.75;4433712;32;33811;-81
2023/05/18 00:02:39;;;;;;;;;;;;;;;12.84;71.53;99637.59;4428577;32;33074;-81
2023/05/18 00:05:09;;;;;;;;;;;;;;;12.94;71.76;99639.09;4428715;32;34080;-81
2023/05/18 00:07:39;;;;;;;;;;;;;;;13.18;70.83;99644.63;4428312;32;34652;-81
2023/05/18 00:10:09;;;;;;;;;;;;;;;13.27;70.22;99652.25;4433827;32;33848;-82
2023/05/18 00:12:38;;;;;;;;;;;;;;;13.21;71.00;99647.97;4431091;32;34884;-81
2023/05/18 00:15:07;;;;;;;;;;;;;;;13.28;70.87;99645.28;4428477;32;33670;-82
2023/05/18 00:20:37;;;;;;;;;;;;;;;12.84;73.68;99637.59;4410861;32;34866;-83
2023/05/18 00:23:15;;;;;;;;;;;;;;;13.17;72.49;99646.38;4428305;32;33201;-82
2023/05/18 00:25:43;;;;;;;;;;;;;;;13.10;73.29;99647.41;4432636;32;34198;-83
2023/05/18 00:28:12;;;;;;;;;;;;;;;13.02;74.20;99647.59;4427878;32;33598;-82
2023/05/18 00:30:40;;;;;;;;;;;;;;;13.12;74.16;99644.75;4428305;32;32996;-84
2023/05/18 00:33:09;;;;;;;;;;;;;;;13.10;74.83;99643.97;4430421;32;32810;-82
2023/05/18 00:35:37;;;;;;;;;;;;;;;13.14;74.42;99646.41;4433991;32;34434;-83
2023/05/18 00:38:07;;;;;;;;;;;;;;;13.09;75.03;99652.66;4428680;32;34362;-81
2023/05/18 00:40:38;;;;;;;;;;;;;;;12.99;75.70;99652.84;4430296;32;34152;-81
2023/05/18 00:43:07;;;;;;;;;;;;;;;13.00;75.82;99653.75;4429993;32;32228;-81
2023/05/18 00:45:35;;;;;;;;;;;;;;;12.93;76.24;99652.16;4430565;32;33792;-80
2023/05/18 00:48:04;;;;;;;;;;;;;;;12.72;78.34;99646.53;4435629;32;34244;-82
2023/05/18 00:50:33;;;;;;;;;;;;;;;12.68;77.99;99649.25;4429968;32;34490;-80
2023/05/18 00:53:01;;;;;;;;;;;;;;;12.70;78.11;99655.28;4429716;32;33242;-82
2023/05/18 00:55:31;;;;;;;;;;;;;;;12.64;79.33;99658.87;4429984;32;33640;-82
2023/05/18 00:58:01;;;;;;;;;;;;;;;13.03;78.12;99651.06;4435640;32;33554;-81
2023/05/18 01:00:29;;;;;;;;;;;;;;;13.13;77.28;99660.34;4430228;32;34041;-80
2023/05/18 01:02:58;;;;;;;;;;;;;;;13.32;76.16;99655.59;4431599;32;32962;-80
2023/05/18 01:05:27;;;;;;;;;;;;;;;13.01;77.61;99660.66;4432321;32;33482;-80
2023/05/18 01:07:56;;;;;;;;;;;;;;;12.97;77.56;99654.62;4432871;32;34899;-82
2023/05/18 01:10:25;;;;;;;;;;;;;;;12.55;79.96;99662.53;4429176;32;34359;-80
2023/05/18 01:12:56;;;;;;;;;;;;;;;12.69;80.23;99654.44;4428510;32;33418;-81
2023/05/18 01:15:26;;;;;;;;;;;;;;;12.58;80.29;99661.62;4428428;32;34552;-79
2023/05/18 01:17:59;;;;;;;;;;;;;;;12.72;79.72;99674.34;4426747;32;33606;-79
2023/05/18 01:20:32;;;;;;;;;;;;;;;12.55;81.24;99666.88;4434821;32;35266;-80
2023/05/18 01:23:08;;;;;;;;;;;;;;;12.68;80.76;99668.31;4428240;32;33379;-81
2023/05/18 01:25:43;;;;;;;;;;;;;;;12.58;80.98;99672.87;4419349;32;34024;-80
2023/05/18 01:28:15;;;;;;;;;;;;;;;12.56;81.52;99672.06;4427838;32;34440;-80
2023/05/18 01:30:44;;;;;;;;;;;;;;;12.56;82.28;99669.47;4429148;32;34355;-81
2023/05/18 01:33:13;;;;;;;;;;;;;;;12.22;83.67;99665.84;4432972;32;32833;-79
2023/05/18 01:35:46;;;;;;;;;;;;;;;12.64;81.79;99674.50;4428767;32;33759;-83
2023/05/18 01:38:16;;;;;;;;;;;;;;;12.65;81.11;99677.97;4432271;32;33924;-81
2023/05/18 01:40:48;;;;;;;;;;;;;;;12.75;81.11;99677.72;4430367;32;34865;-80
2023/05/18 01:43:18;;;;;;;;;;;;;;;12.80;80.86;99686.28;4436979;32;33942;-80
2023/05/18 01:45:47;;;;;;;;;;;;;;;12.66;81.25;99679.66;4430125;32;33194;-80
2023/05/18 01:48:16;;;;;;;;;;;;;;;12.56;82.28;99690.28;4431884;32;34268;-81
2023/05/18 01:50:45;;;;;;;;;;;;;;;12.89;80.73;99692.19;4429911;32;33814;-81
2023/05/18 01:53:16;;;;;;;;;;;;;;;12.47;82.79;99687.87;4425436;32;33238;-81
2023/05/18 01:55:44;;;;;;;;;;;;;;;12.49;82.68;99693.03;4431395;32;34342;-83
2023/05/18 01:58:13;;;;;;;;;;;;;;;12.56;82.65;99685.09;4427291;32;34719;-81
2023/05/18 02:00:43;;;;;;;;;;;;;;;12.70;81.80;99695.19;4429987;32;33611;-81
2023/05/18 02:03:12;;;;;;;;;;;;;;;12.54;82.21;99697.28;4429665;32;32848;-82
2023/05/18 02:05:40;;;;;;;;;;;;;;;12.34;83.31;99702.00;4436251;32;33954;-82
2023/05/18 02:08:09;;;;;;;;;;;;;;;12.46;83.25;99699.16;4429981;32;34241;-83
2023/05/18 02:10:38;;;;;;;;;;;;;;;12.70;81.50;99692.56;4431368;32;34411;-82
2023/05/18 02:13:07;;;;;;;;;;;;;;;12.75;82.01;99701.13;4431115;32;33251;-84
2023/05/18 02:15:35;;;;;;;;;;;;;;;12.93;81.13;99704.25;4436746;32;34383;-83
2023/05/18 02:18:07;;;;;;;;;;;;;;;12.75;81.50;99700.28;4435001;32;35173;-82
2023/05/18 02:20:39;;;;;;;;;;;;;;;12.77;81.50;99704.56;4431035;32;34141;-84
2023/05/18 02:23:08;;;;;;;;;;;;;;;12.71;81.23;99709.94;4431307;32;34191;-81
2023/05/18 02:25:37;;;;;;;;;;;;;;;12.62;82.12;99706.66;4431151;32;34726;-83
2023/05/18 02:28:05;;;;;;;;;;;;;;;12.84;81.13;99707.91;4436623;32;34079;-84
2023/05/18 02:30:34;;;;;;;;;;;;;;;12.41;82.66;99708.81;4431187;32;34601;-82
2023/05/18 02:33:03;;;;;;;;;;;;;;;12.47;83.06;99715.66;4430948;32;33925;-83
2023/05/18 02:35:33;;;;;;;;;;;;;;;12.58;82.68;99711.06;4431136;32;34210;-82
2023/05/18 02:38:03;;;;;;;;;;;;;;;12.54;82.79;99714.59;4436794;32;33602;-82
2023/05/18 02:40:31;;;;;;;;;;;;;;;12.46;83.74;99724.31;4435367;32;33697;-81
2023/05/18 02:43:00;;;;;;;;;;;;;;;12.38;83.45;99722.72;4431154;32;33720;-82
2023/05/18 02:45:29;;;;;;;;;;;;;;;12.27;84.36;99718.63;4433871;32;33387;-85
2023/05/18 02:47:58;;;;;;;;;;;;;;;12.25;85.28;99715.19;4430951;32;34042;-83
2023/05/18 02:50:27;;;;;;;;;;;;;;;12.50;83.72;99721.63;4435786;32;34702;-86
2023/05/18 02:52:57;;;;;;;;;;;;;;;12.26;84.36;99727.34;4430945;32;33394;-84
2023/05/18 02:55:27;;;;;;;;;;;;;;;12.50;83.48;99724.22;4430615;32;34152;-85
2023/05/18 02:57:57;;;;;;;;;;;;;;;12.57;83.23;99723.22;4431062;32;34230;-84
2023/05/18 03:00:28;;;;;;;;;;;;;;;12.52;83.32;99724.22;4436535;32;34377;-85
2023/05/18 03:03:00;;;;;;;;;;;;;;;12.50;83.73;99723.38;4430486;32;33700;-87
2023/05/18 03:05:29;;;;;;;;;;;;;;;12.43;84.04;99720.03;4430407;32;33638;-85
2023/05/18 03:08:01;;;;;;;;;;;;;;;12.43;84.32;99720.03;4430579;32;34277;-87
2023/05/18 03:10:30;;;;;;;;;;;;;;;12.69;83.46;99719.50;4430803;32;33949;-85
2023/05/18 03:12:58;;;;;;;;;;;;;;;12.67;82.72;99717.81;4436247;32;33345;-87
2023/05/18 03:15:30;;;;;;;;;;;;;;;12.82;82.75;99720.94;4432934;32;34485;-86
2023/05/18 03:17:59;;;;;;;;;;;;;;;12.87;82.61;99725.19;4431123;32;34252;-86
2023/05/18 03:20:30;;;;;;;;;;;;;;;12.94;83.00;99727.63;4430791;32;33671;-87
2023/05/18 03:23:00;;;;;;;;;;;;;;;12.95;82.26;99725.88;4436214;32;33157;-87
2023/05/18 03:25:31;;;;;;;;;;;;;;;12.90;81.78;99733.81;4428253;32;33982;-86
2023/05/18 03:28:01;;;;;;;;;;;;;;;12.94;81.93;99731.97;4431093;32;33218;-85
2023/05/18 03:30:30;;;;;;;;;;;;;;;12.95;81.68;99725.88;4430568;32;34771;-86
2023/05/18 03:32:59;;;;;;;;;;;;;;;13.05;80.77;99735.22;4431009;32;32794;-85
2023/05/18 03:35:28;;;;;;;;;;;;;;;12.94;81.16;99726.78;4436194;32;34843;-84
2023/05/18 03:37:57;;;;;;;;;;;;;;;12.72;81.79;99732.44;4430909;32;34395;-87
2023/05/18 03:40:28;;;;;;;;;;;;;;;12.53;83.05;99736.31;4424399;32;34542;-87
2023/05/18 03:42:56;;;;;;;;;;;;;;;12.64;83.25;99736.97;4429598;32;32521;-86
2023/05/18 03:45:26;;;;;;;;;;;;;;;12.51;83.23;99738.94;4436037;32;33242;-84
2023/05/18 03:47:54;;;;;;;;;;;;;;;12.36;84.50;99745.31;4430605;32;34351;-85
2023/05/18 03:50:24;;;;;;;;;;;;;;;12.33;85.04;99749.75;4429761;32;33736;-86
2023/05/18 03:52:54;;;;;;;;;;;;;;;12.41;85.08;99749.59;4424528;32;33414;-86
2023/05/18 03:55:22;;;;;;;;;;;;;;;12.68;83.30;99758.56;4430923;32;34242;-87
2023/05/18 03:57:53;;;;;;;;;;;;;;;12.35;85.08;99751.41;4436013;32;33304;-87
2023/05/18 04:00:22;;;;;;;;;;;;;;;12.37;85.43;99753.97;4426368;32;33489;-86
2023/05/18 04:02:51;;;;;;;;;;;;;;;12.67;83.50;99764.69;4430487;32;32817;-87
2023/05/18 04:05:21;;;;;;;;;;;;;;;12.69;83.65;99758.56;4430633;32;33266;-86
2023/05/18 04:07:49;;;;;;;;;;;;;;;12.66;83.35;99763.81;4436250;32;34579;-85
2023/05/18 04:10:20;;;;;;;;;;;;;;;12.71;82.63;99759.38;4430466;32;34036;-86
2023/05/18 04:12:48;;;;;;;;;;;;;;;12.57;82.99;99762.25;4430205;32;34737;-86
2023/05/18 04:15:18;;;;;;;;;;;;;;;12.43;84.63;99766.03;4430350;32;33959;-87
2023/05/18 04:17:48;;;;;;;;;;;;;;;12.73;82.98;99762.81;4432090;32;34612;-88
2023/05/18 04:20:17;;;;;;;;;;;;;;;12.41;84.75;99767.78;4436010;32;33169;-87
2023/05/18 04:22:46;;;;;;;;;;;;;;;12.42;85.87;99769.50;4430710;32;33671;-87
2023/05/18 04:25:16;;;;;;;;;;;;;;;12.66;83.25;99773.34;4430130;32;33110;-87
2023/05/18 04:27:45;;;;;;;;;;;;;;;12.40;85.13;99771.28;4428072;32;33744;-85
2023/05/18 04:30:21;;;;;;;;;;;;;;;12.58;83.97;99779.56;4436091;32;33593;-85
2023/05/18 04:32:50;;;;;;;;;;;;;;;12.42;84.62;99777.31;4429699;32;33315;-85
2023/05/18 04:35:18;;;;;;;;;;;;;;;12.34;85.44;99777.44;4428994;32;33733;-86
2023/05/18 04:37:47;;;;;;;;;;;;;;;12.29;85.86;99785.34;4429267;32;34623;-86
2023/05/18 04:40:21;;;;;;;;;;;;;;;12.65;83.96;99782.91;4430510;32;34025;-85
2023/05/18 04:42:50;;;;;;;;;;;;;;;12.73;83.49;99782.75;4434938;32;31786;-86
2023/05/18 04:45:20;;;;;;;;;;;;;;;12.82;82.81;99785.19;4432305;32;34208;-85
2023/05/18 04:47:52;;;;;;;;;;;;;;;12.61;83.09;99783.84;4434399;32;35131;-87
2023/05/18 04:50:23;;;;;;;;;;;;;;;12.64;83.62;99778.63;4436010;32;34714;-85
2023/05/18 04:52:52;;;;;;;;;;;;;;;12.49;84.91;99787.59;4441244;32;33046;-86
2023/05/18 04:55:24;;;;;;;;;;;;;;;12.55;84.08;99779.66;4431394;32;33835;-87
2023/05/18 04:57:55;;;;;;;;;;;;;;;12.62;84.76;99780.37;4430114;32;33460;-86
2023/05/18 05:00:27;;;;;;;;;;;;;;;12.72;83.32;99786.25;4430686;32;34055;-85
2023/05/18 05:02:56;;;;;;;;;;;;;;;12.65;83.41;99782.06;4431921;32;34193;-86
2023/05/18 05:05:25;;;;;;;;;;;;;;;12.67;84.13;99788.94;4434435;32;33759;-86
2023/05/18 05:07:54;;;;;;;;;;;;;;;12.57;85.31;99788.28;4435860;32;34172;-85
2023/05/18 05:10:24;;;;;;;;;;;;;;;12.69;84.79;99791.53;4433529;32;33993;-87
2023/05/18 05:12:52;;;;;;;;;;;;;;;12.84;82.73;99787.75;4435261;32;32482;-86
2023/05/18 05:15:20;;;;;;;;;;;;;;;12.74;83.52;99795.75;4449811;32;33813;-87
2023/05/18 05:17:51;;;;;;;;;;;;;;;12.68;84.38;99795.00;4444096;32;35496;-86
2023/05/18 05:20:19;;;;;;;;;;;;;;;12.70;84.54;99794.09;4441946;32;33487;-86
2023/05/18 05:22:48;;;;;;;;;;;;;;;12.89;83.66;99798.94;4429524;32;33111;-88
2023/05/18 05:25:16;;;;;;;;;;;;;;;12.77;83.92;99798.28;4435359;32;35028;-86
2023/05/18 05:27:45;;;;;;;;;;;;;;;12.51;85.71;99801.41;4440135;32;34361;-86
2023/05/18 05:30:14;;;;;;;;;;;;;;;12.59;85.76;99798.66;4435049;32;33730;-88
2023/05/18 05:32:43;;;;;;;;;;;;;;;12.86;84.17;99810.25;4430950;32;33025;-86
2023/05/18 05:35:12;;;;;;;;;;;;;;;12.70;85.20;99804.50;4432496;32;34320;-87
2023/05/18 05:37:41;;;;;;;;;;;;;;;12.50;85.82;99804.06;4438480;32;33945;-86
2023/05/18 05:40:10;;;;;;;;;;;;;;;12.92;83.92;99807.50;4432924;32;33959;-88
2023/05/18 05:42:40;;;;;;;;;;;;;;;12.85;84.61;99810.28;4435371;32;31533;-86
2023/05/18 05:45:09;;;;;;;;;;;;;;;12.86;84.02;99806.81;4436808;32;33559;-86
2023/05/18 05:47:38;;;;;;;;;;;;;;;13.03;83.60;99809.91;4440597;32;33860;-86
2023/05/18 05:50:07;;;;;;;;;;;;;;;13.03;82.64;99807.31;4433693;32;34469;-85
2023/05/18 05:52:37;;;;;;;;;;;;;;;12.84;83.85;99824.22;4429546;32;33007;-86
2023/05/18 05:55:07;;;;;;;;;;;;;;;12.82;84.51;99816.41;4437077;32;34433;-86
2023/05/18 05:57:35;;;;;;;;;;;;;;;12.99;83.10;99819.53;4429998;32;34287;-86
2023/05/18 06:00:09;;;;;;;;;;;;;;;12.90;83.47;99822.34;4434702;32;32995;-85
2023/05/18 06:02:48;;;;;;;;;;;;;;;12.88;84.18;99825.84;4429134;32;32507;-85
2023/05/18 06:05:17;;;;;;;;;;;;;;;12.85;84.31;99831.13;4429215;32;33632;-86
2023/05/18 06:07:47;;;;;;;;;;;;;;;13.12;82.96;99824.47;4428750;32;35001;-86
2023/05/18 06:10:16;;;;;;;;;;;;;;;13.08;82.55;99834.09;4434915;32;33769;-86
2023/05/18 06:12:45;;;;;;;;;;;;;;;12.89;83.40;99836.22;4432761;32;33281;-86
2023/05/18 06:15:13;;;;;;;;;;;;;;;12.98;83.44;99840.41;4429008;32;33306;-86
2023/05/18 06:17:42;;;;;;;;;;;;;;;12.81;84.17;99833.78;4428686;32;34633;-87
2023/05/18 06:20:12;;;;;;;;;;;;;;;12.95;84.39;99843.94;4428821;32;35617;-87
2023/05/18 06:22:41;;;;;;;;;;;;;;;13.22;82.53;99833.81;4434367;32;33399;-86
2023/05/18 06:25:11;;;;;;;;;;;;;;;13.28;82.28;99846.72;4429344;32;34977;-86
2023/05/18 06:27:43;;;;;;;;;;;;;;;13.04;82.84;99845.47;4426980;32;34938;-86
2023/05/18 06:30:13;;;;;;;;;;;;;;;12.95;83.90;99840.44;4429335;32;34116;-86
2023/05/18 06:32:42;;;;;;;;;;;;;;;13.15;83.45;99850.47;4436678;32;32820;-87
2023/05/18 06:35:11;;;;;;;;;;;;;;;13.15;83.55;99851.31;4427425;32;34315;-86
2023/05/18 06:37:40;;;;;;;;;;;;;;;13.19;82.79;99852.97;4431116;32;34566;-87
2023/05/18 06:40:09;;;;;;;;;;;;;;;13.16;83.55;99852.19;4431235;32;34607;-86
2023/05/18 06:42:39;;;;;;;;;;;;;;;13.26;82.99;99851.09;4438943;32;33040;-87
2023/05/18 06:45:13;;;;;;;;;;;;;;;13.21;83.14;99856.37;4438866;32;34180;-88
2023/05/18 06:47:45;;;;;;;;;;;;;;;13.22;83.60;99859.88;4435210;32;34527;-86
2023/05/18 06:50:13;;;;;;;;;;;;;;;13.28;83.85;99861.50;4430906;32;33555;-88
2023/05/18 06:52:42;;;;;;;;;;;;;;;13.41;82.92;99865.59;4430937;32;32756;-87
2023/05/18 06:55:10;;;;;;;;;;;;;;;13.36;83.43;99864.78;4436482;32;34394;-86
2023/05/18 06:57:41;;;;;;;;;;;;;;;13.49;81.94;99866.25;4430857;32;33587;-88
2023/05/18 07:00:11;;;;;;;;;;;;;;;13.20;84.22;99869.47;4427182;32;34453;-87
2023/05/18 07:02:42;;;;;;;;;;;;;;;13.50;82.64;99867.97;4430669;32;32677;-87
2023/05/18 07:05:13;;;;;;;;;;;;;;;13.42;83.89;99869.91;4430893;32;33335;-87
2023/05/18 07:07:42;;;;;;;;;;;;;;;13.70;82.68;99872.75;4435463;32;34707;-87
2023/05/18 07:10:10;;;;;;;;;;;;;;;13.70;82.45;99882.28;4429438;32;34680;-87
2023/05/18 07:12:40;;;;;;;;;;;;;;;13.91;80.97;99883.56;4428542;32;33502;-88
2023/05/18 07:15:10;;;;;;;;;;;;;;;13.85;81.86;99882.81;4429086;32;34421;-88
2023/05/18 07:17:38;;;;;;;;;;;;;;;14.06;80.75;99881.44;4434732;32;33826;-89
2023/05/18 07:20:07;;;;;;;;;;;;;;;14.00;80.13;99876.38;4428760;32;34684;-88
2023/05/18 07:22:36;;;;;;;;;;;;;;;13.90;80.15;99890.53;4429447;32;33736;-87
2023/05/18 07:25:05;;;;;;;;;;;;;;;13.78;81.12;99885.59;4430799;32;33807;-87
2023/05/18 07:27:33;;;;;;;;;;;;;;;13.76;81.97;99888.22;4430795;32;33587;-87
2023/05/18 07:30:04;;;;;;;;;;;;;;;13.64;82.35;99884.16;4436371;32;34662;-89
2023/05/18 07:32:32;;;;;;;;;;;;;;;13.50;83.73;99893.16;4430599;32;31942;-87
2023/05/18 07:35:01;;;;;;;;;;;;;;;14.00;80.82;99897.22;4430472;32;33951;-87
2023/05/18 07:37:29;;;;;;;;;;;;;;;13.49;83.55;99896.69;4430815;32;34645;-87
2023/05/18 07:39:58;;;;;;;;;;;;;;;13.87;82.89;99904.50;4436106;32;33837;-87
2023/05/18 07:42:26;;;;;;;;;;;;;;;14.18;80.96;99897.66;4430662;32;32704;-87
2023/05/18 07:44:55;;;;;;;;;;;;;;;14.24;80.52;99905.38;4430699;32;33436;-88
2023/05/18 07:47:25;;;;;;;;;;;;;;;14.42;79.13;99899.66;4430398;32;33751;-89
2023/05/18 07:49:53;;;;;;;;;;;;;;;14.33;80.20;99905.12;4436234;32;34248;-87
2023/05/18 07:52:22;;;;;;;;;;;;;;;14.43;79.63;99906.62;4430741;32;33628;-89
2023/05/18 07:54:51;;;;;;;;;;;;;;;14.58;80.11;99902.78;4430867;32;34549;-89
2023/05/18 07:57:19;;;;;;;;;;;;;;;14.87;78.56;99907.22;4426247;32;34797;-89
2023/05/18 07:59:48;;;;;;;;;;;;;;;14.59;80.71;99911.47;4429904;32;34939;-89
2023/05/18 08:02:18;;;;;;;;;;;;;;;14.90;79.01;99907.13;4436010;32;33590;-88
2023/05/18 08:04:48;;;;;;;;;;;;;;;15.19;78.16;99915.06;4430703;32;33662;-88
2023/05/18 08:07:17;;;;;;;;;;;;;;;15.27;78.41;99908.72;4430463;32;34773;-88
2023/05/18 08:09:46;;;;;;;;;;;;;;;15.14;78.75;99908.19;4430525;32;33884;-88
2023/05/18 08:12:15;;;;;;;;;;;;;;;14.87;81.12;99904.59;4432521;32;34064;-88
2023/05/18 08:14:43;;;;;;;;;;;;;;;15.25;78.55;99910.53;4415238;32;34481;-88
2023/05/18 08:17:11;;;;;;;;;;;;;;;15.54;76.17;99917.50;4432031;32;33603;-88
2023/05/18 08:19:40;;;;;;;;;;;;;;;15.48;77.06;99917.69;4439803;32;33811;-88
2023/05/18 08:22:10;;;;;;;;;;;;;;;15.46;76.99;99916.84;4446214;32;33776;-89
2023/05/18 08:24:38;;;;;;;;;;;;;;;15.45;77.54;99925.63;4451093;32;33624;-88
2023/05/18 08:27:10;;;;;;;;;;;;;;;15.48;77.92;99927.28;4433274;32;33570;-89
2023/05/18 08:29:38;;;;;;;;;;;;;;;15.32;77.10;99927.75;4428399;32;33435;-88
2023/05/18 08:32:07;;;;;;;;;;;;;;;15.52;77.20;99921.06;4428664;32;33244;-88
2023/05/18 08:34:36;;;;;;;;;;;;;;;15.01;80.23;99919.06;4434498;32;33737;-88
2023/05/18 08:37:05;;;;;;;;;;;;;;;15.54;78.30;99922.75;4431433;32;34964;-89
2023/05/18 08:39:36;;;;;;;;;;;;;;;14.46;84.05;99923.94;4428448;32;33687;-89
2023/05/18 08:42:07;;;;;;;;;;;;;;;14.71;78.87;99924.19;4428855;32;33609;-88
2023/05/18 08:44:38;;;;;;;;;;;;;;;14.12;85.24;99922.16;4433740;32;33732;-88
2023/05/18 08:47:08;;;;;;;;;;;;;;;15.12;80.05;99930.03;4432395;32;33665;-87
2023/05/18 08:49:36;;;;;;;;;;;;;;;15.74;74.54;99929.16;4428148;32;35557;-87
2023/05/18 08:52:05;;;;;;;;;;;;;;;15.45;77.16;99932.63;4428780;32;33152;-89
2023/05/18 08:54:35;;;;;;;;;;;;;;;15.36;78.95;99925.87;4428375;32;34509;-89
2023/05/18 08:57:05;;;;;;;;;;;;;;;15.49;75.90;99932.47;4433806;32;33759;-88
2023/05/18 08:59:33;;;;;;;;;;;;;;;15.51;76.62;99933.28;4429848;32;33703;-87
2023/05/18 09:02:02;;;;;;;;;;;;;;;15.50;79.36;99935.94;4429816;32;33722;-87
2023/05/18 09:04:30;;;;;;;;;;;;;;;15.72;75.69;99931.81;4430885;32;33487;-87
2023/05/18 09:07:01;;;;;;;;;;;;;;;15.33;78.42;99926.81;4435583;32;34078;-87
2023/05/18 09:09:29;;;;;;;;;;;;;;;15.42;77.50;99928.34;4429806;32;33514;-90
2023/05/18 09:11:59;;;;;;;;;;;;;;;15.55;77.17;99928.81;4430320;32;33601;-86
2023/05/18 09:14:31;;;;;;;;;;;;;;;15.30;78.98;99921.69;4429429;32;33992;-88
2023/05/18 09:17:00;;;;;;;;;;;;;;;15.44;76.48;99923.03;4429671;32;34659;-87
2023/05/18 09:19:29;;;;;;;;;;;;;;;16.03;73.10;99919.53;4439296;32;34370;-87
2023/05/18 09:21:57;;;;;;;;;;;;;;;15.70;76.64;99935.38;4438418;32;32793;-87
2023/05/18 09:24:25;;;;;;;;;;;;;;;16.03;76.06;99930.88;4436055;32;33830;-87
2023/05/18 09:26:54;;;;;;;;;;;;;;;16.55;71.78;99933.53;4437663;32;34302;-87
2023/05/18 09:29:24;;;;;;;;;;;;;;;16.27;73.21;99934.44;4432832;32;31918;-87
2023/05/18 09:31:53;;;;;;;;;;;;;;;16.09;73.18;99933.31;4434573;32;32994;-88
2023/05/18 09:34:23;;;;;;;;;;;;;;;16.37;70.90;99932.37;4429861;32;33421;-87
2023/05/18 09:36:52;;;;;;;;;;;;;;;16.33;71.99;99933.37;4429803;32;34623;-87
2023/05/18 09:39:21;;;;;;;;;;;;;;;16.20;72.66;99933.78;4430393;32;34297;-88
2023/05/18 09:41:54;;;;;;;;;;;;;;;16.25;73.77;99938.88;4434971;32;33206;-87
2023/05/18 09:44:30;;;;;;;;;;;;;;;16.04;75.48;99940.41;4429648;32;34110;-87
2023/05/18 09:46:58;;;;;;;;;;;;;;;16.39;74.46;99941.06;4429614;32;35185;-87
2023/05/18 09:49:28;;;;;;;;;;;;;;;15.75;76.46;99942.19;4431232;32;33535;-87
2023/05/18 09:51:58;;;;;;;;;;;;;;;16.35;74.47;99936.81;4442755;32;33724;-87
2023/05/18 09:54:27;;;;;;;;;;;;;;;16.12;74.55;99940.19;4435056;32;34008;-87
2023/05/18 09:56:56;;;;;;;;;;;;;;;16.07;76.05;99937.72;4429472;32;33957;-87
2023/05/18 09:59:40;;;;;;;;;;;;;;;16.05;77.52;99934.28;4430208;32;33669;-87
2023/05/18 10:02:11;;;;;;;;;;;;;;;16.27;75.56;99946.69;4433173;32;34154;-88
2023/05/18 10:04:41;;;;;;;;;;;;;;;15.81;75.85;99940.28;4441121;32;32865;-87
2023/05/18 10:07:11;;;;;;;;;;;;;;;16.43;73.24;99935.66;4439156;32;34814;-89
2023/05/18 10:09:39;;;;;;;;;;;;;;;16.17;76.24;99941.75;4438307;32;33525;-90
2023/05/18 10:12:11;;;;;;;;;;;;;;;16.20;76.49;99939.03;4441863;32;34409;-88
2023/05/18 10:14:42;;;;;;;;;;;;;;;16.67;74.35;99940.09;4451824;32;34561;-88
2023/05/18 10:17:11;;;;;;;;;;;;;;;16.60;74.46;99932.47;4452075;32;34277;-88
2023/05/18 10:19:43;;;;;;;;;;;;;;;17.07;70.21;99937.00;4447038;32;34143;-88
2023/05/18 10:22:12;;;;;;;;;;;;;;;16.69;73.30;99938.31;4446728;32;32919;-87
2023/05/18 10:24:42;;;;;;;;;;;;;;;16.51;72.87;99940.66;4446911;32;33541;-87
2023/05/18 10:27:10;;;;;;;;;;;;;;;16.81;71.98;99940.53;4440780;32;34801;-90
2023/05/18 10:29:39;;;;;;;;;;;;;;;17.14;69.48;99942.88;4429567;32;33746;-88
2023/05/18 10:32:09;;;;;;;;;;;;;;;16.80;70.91;99938.81;4429564;32;34234;-90
2023/05/18 10:34:37;;;;;;;;;;;;;;;17.04;69.44;99940.56;4430037;32;33324;-91
2023/05/18 10:37:06;;;;;;;;;;;;;;;16.23;72.27;99947.69;4442362;32;34635;-88
2023/05/18 10:39:38;;;;;;;;;;;;;;;16.30;73.09;99946.59;4444189;32;33788;-88
2023/05/18 10:42:07;;;;;;;;;;;;;;;16.00;74.04;99941.44;4435595;32;33152;-88
2023/05/18 10:44:35;;;;;;;;;;;;;;;16.01;75.65;99945.75;4431292;32;34239;-88
2023/05/18 10:47:04;;;;;;;;;;;;;;;16.45;72.35;99942.59;4440012;32;35121;-88
2023/05/18 10:49:35;;;;;;;;;;;;;;;15.90;74.20;99940.87;4444239;32;33800;-87
2023/05/18 10:52:05;;;;;;;;;;;;;;;16.53;71.75;99944.06;4442375;32;33214;-88
2023/05/18 10:54:34;;;;;;;;;;;;;;;16.50;73.00;99936.28;4432065;32;34239;-87
2023/05/18 10:57:02;;;;;;;;;;;;;;;15.84;76.59;99942.81;4438074;32;34982;-88
2023/05/18 10:59:31;;;;;;;;;;;;;;;16.43;74.03;99935.66;4434162;32;34972;-88
2023/05/18 11:02:00;;;;;;;;;;;;;;;16.73;72.33;99934.69;4434359;32;33574;-88
2023/05/18 11:04:29;;;;;;;;;;;;;;;15.89;74.09;99935.66;4437782;32;33907;-88
2023/05/18 11:06:59;;;;;;;;;;;;;;;15.66;77.45;99949.44;4437530;32;33709;-90
2023/05/18 11:09:28;;;;;;;;;;;;;;;16.16;75.88;99945.28;4436338;32;34914;-88
2023/05/18 11:11:57;;;;;;;;;;;;;;;15.65;78.13;99951.16;4437930;32;33277;-88
2023/05/18 11:14:26;;;;;;;;;;;;;;;16.00;75.97;99952.75;4440276;32;34126;-91
2023/05/18 11:16:55;;;;;;;;;;;;;;;15.32;79.42;99951.28;4447396;32;34025;-88
2023/05/18 11:19:24;;;;;;;;;;;;;;;15.78;77.06;99949.94;4446071;32;33922;-88
2023/05/18 11:21:53;;;;;;;;;;;;;;;15.45;77.93;99949.16;4446775;32;33546;-88
2023/05/18 11:24:24;;;;;;;;;;;;;;;15.70;77.73;99954.53;4436921;32;34041;-91
2023/05/18 11:26:52;;;;;;;;;;;;;;;16.03;75.71;99956.19;4436067;32;33866;-88
2023/05/18 11:29:22;;;;;;;;;;;;;;;16.22;75.97;99962.53;4415297;32;34636;-89
2023/05/18 11:31:51;;;;;;;;;;;;;;;16.58;73.79;99957.88;4422292;32;34207;-89
2023/05/18 11:34:39;;;;;;;;;;;;;;;17.09;71.03;99956.16;4435985;32;33860;-89
2023/05/18 11:37:08;;;;;;;;;;;;;;;17.14;69.11;99955.97;4430918;32;35459;-89
2023/05/18 11:39:38;;;;;;;;;;;;;;;16.23;73.15;99963.41;4430443;32;34061;-88
2023/05/18 11:42:23;;;;;;;;;;;;;;;16.49;72.10;99960.78;4430749;32;33300;-89
2023/05/18 11:44:52;;;;;;;;;;;;;;;16.55;73.97;99963.22;4430177;32;34917;-88
2023/05/18 11:47:20;;;;;;;;;;;;;;;16.90;72.28;99957.69;4436011;32;33948;-88
2023/05/18 11:49:49;;;;;;;;;;;;;;;16.93;70.12;99965.44;4430542;32;34303;-89
2023/05/18 11:52:18;;;;;;;;;;;;;;;16.87;70.41;99961.28;4429426;32;34073;-88
2023/05/18 11:54:50;;;;;;;;;;;;;;;17.01;71.05;99959.03;4428688;32;34029;-89
2023/05/18 11:57:19;;;;;;;;;;;;;;;16.84;72.66;99961.38;4434333;32;35462;-89
2023/05/18 11:59:48;;;;;;;;;;;;;;;17.12;70.49;99957.78;4428700;32;34381;-89
2023/05/18 12:02:20;;;;;;;;;;;;;;;16.11;74.66;99964.63;4428570;32;32875;-88
2023/05/18 12:04:50;;;;;;;;;;;;;;;16.61;72.65;99968.22;4428440;32;34077;-89
2023/05/18 12:07:19;;;;;;;;;;;;;;;17.03;70.73;99967.72;4429596;32;34400;-89
2023/05/18 12:09:49;;;;;;;;;;;;;;;16.78;71.81;99965.06;4410852;32;785579;-90
2023/05/18 12:12:18;;;;;;;;;;;;;;;16.15;74.27;99964.50;4429981;32;33521;-89
2023/05/18 12:14:53;;;;;;;;;;;;;;;16.72;70.98;99959.16;4430599;32;34936;-90
2023/05/18 12:17:23;;;;;;;;;;;;;;;16.07;74.82;99963.00;4430495;32;34544;-90
2023/05/18 12:19:51;;;;;;;;;;;;;;;16.00;76.44;99970.22;4435903;32;33967;-89
2023/05/18 12:22:20;;;;;;;;;;;;;;;16.39;72.23;99977.72;4429634;32;34492;-89
2023/05/18 12:24:51;;;;;;;;;;;;;;;16.68;71.25;99970.66;4430070;32;34898;-88
2023/05/18 12:27:21;;;;;;;;;;;;;;;16.28;74.10;99978.03;4429007;32;33943;-88
2023/05/18 12:29:50;;;;;;;;;;;;;;;16.11;72.05;99975.97;4425937;32;34706;-88
2023/05/18 12:32:19;;;;;;;;;;;;;;;16.63;71.34;99968.19;4432672;32;33185;-88
2023/05/18 12:34:47;;;;;;;;;;;;;;;16.48;74.06;99977.41;4428089;32;33546;-88
2023/05/18 12:40:15;;;;;;;;;;;;;;;16.84;71.62;99971.84;4429801;32;33950;-89
2023/05/18 12:42:54;;;;;;;;;;;;;;;16.88;72.23;99968.22;4429924;32;34376;-88
2023/05/18 12:45:24;;;;;;;;;;;;;;;16.68;73.74;99962.78;4435514;32;34296;-88
2023/05/18 12:47:54;;;;;;;;;;;;;;;17.11;70.37;99966.59;4430003;32;34282;-89
2023/05/18 12:50:23;;;;;;;;;;;;;;;17.08;70.64;99962.28;4429856;32;34898;-88
2023/05/18 12:52:52;;;;;;;;;;;;;;;16.83;70.58;99965.75;4430298;32;33233;-88
2023/05/18 12:55:23;;;;;;;;;;;;;;;17.17;69.67;99969.81;4435549;32;34188;-90
2023/05/18 12:58:00;;;;;;;;;;;;;;;16.94;70.89;99960.16;4433493;32;34072;-88
2023/05/18 13:00:32;;;;;;;;;;;;;;;16.60;71.14;99963.91;4430032;32;34961;-89
2023/05/18 13:03:07;;;;;;;;;;;;;;;16.32;73.10;99968.34;4429889;32;34170;-89
2023/05/18 13:05:37;;;;;;;;;;;;;;;16.75;73.28;99961.69;4429998;32;34072;-89